createdAt,value
2022-08-22T00:00:44.012Z,87.01
2022-08-22T00:03:15.576Z,87.30
2022-08-22T00:03:56.295Z,86.58
2022-08-22T00:07:07.550Z,86.48
2022-08-22T00:10:22.812Z,86.50
2022-08-22T00:13:43.181Z,86.54
2022-08-22T00:16:54.289Z,86.42
2022-08-22T00:20:06.418Z,86.67
2022-08-22T00:23:28.428Z,86.55
2022-08-22T00:26:45.107Z,86.63
2022-08-22T00:30:15.826Z,86.36
2022-08-22T00:33:43.910Z,86.58
2022-08-22T00:37:10.818Z,86.31
2022-08-22T00:40:33.083Z,86.35
2022-08-22T00:43:51.626Z,85.88
2022-08-22T00:47:43.814Z,86.15
2022-08-22T00:51:07.990Z,86.11
2022-08-22T00:54:40.635Z,86.52
2022-08-22T00:57:58.510Z,86.87
2022-08-22T01:01:06.879Z,87.07
2022-08-22T01:04:09.235Z,87.01
2022-08-22T01:07:30.548Z,86.94
2022-08-22T01:11:01.387Z,87.24
2022-08-22T01:14:14.448Z,87.23
2022-08-22T01:17:36.807Z,87.28
2022-08-22T01:21:12.138Z,87.04
2022-08-22T01:25:22.621Z,87.37
2022-08-22T01:28:30.893Z,87.03
2022-08-22T01:31:48.501Z,86.86
2022-08-22T01:34:50.176Z,86.67
2022-08-22T01:38:04.184Z,86.58
2022-08-22T01:41:17.191Z,86.63
2022-08-22T01:44:47.280Z,86.52
2022-08-22T01:48:03.708Z,86.74
2022-08-22T01:51:33.374Z,86.69
2022-08-22T01:54:46.001Z,86.51
2022-08-22T01:57:58.961Z,86.67
2022-08-22T02:01:14.790Z,86.82
2022-08-22T02:04:37.717Z,87.19
2022-08-22T02:07:46.172Z,87.26
2022-08-22T02:11:06.418Z,100.00
2022-08-22T02:14:32.806Z,86.94
2022-08-22T02:17:54.533Z,86.95
2022-08-22T02:21:17.324Z,86.71
2022-08-22T02:24:38.407Z,86.63
2022-08-22T02:27:49.813Z,86.91
2022-08-22T02:31:18.939Z,86.84
2022-08-22T02:35:07.912Z,86.96
2022-08-22T02:38:56.057Z,86.95
2022-08-22T02:42:03.744Z,86.83
2022-08-22T02:45:52.627Z,87.12
2022-08-22T02:48:54.335Z,87.47
2022-08-22T02:52:20.459Z,87.35
2022-08-22T02:55:42.435Z,87.47
2022-08-22T02:59:17.044Z,87.35
2022-08-22T03:03:00.529Z,87.54
2022-08-22T03:06:06.814Z,87.34
2022-08-22T03:09:14.185Z,87.30
2022-08-22T03:12:39.255Z,87.08
2022-08-22T03:15:59.473Z,87.10
2022-08-22T03:19:18.407Z,87.01
2022-08-22T03:22:28.353Z,86.92
2022-08-22T03:25:33.429Z,86.67
2022-08-22T03:29:03.039Z,86.52
2022-08-22T03:32:13.990Z,86.20
2022-08-22T03:35:42.275Z,86.34
2022-08-22T03:39:15.311Z,86.61
2022-08-22T03:42:29.095Z,85.88
2022-08-22T03:46:08.320Z,86.09
2022-08-22T03:49:27.828Z,85.71
2022-08-22T03:52:29.475Z,85.42
2022-08-22T03:56:02.257Z,85.14
2022-08-22T03:59:22.233Z,85.29
2022-08-22T04:02:58.623Z,85.89
2022-08-22T04:06:31.184Z,86.07
2022-08-22T04:09:57.472Z,86.42
2022-08-22T04:13:34.665Z,86.64
2022-08-22T04:17:21.071Z,86.93
2022-08-22T04:20:47.811Z,87.31
2022-08-22T04:24:13.781Z,87.14
2022-08-22T04:27:21.536Z,87.14
2022-08-22T04:30:27.313Z,87.26
2022-08-22T04:33:33.362Z,87.32
2022-08-22T04:37:00.168Z,87.24
2022-08-22T04:40:14.099Z,87.04
2022-08-22T04:43:36.295Z,87.21
2022-08-22T04:46:45.921Z,86.66
2022-08-22T04:49:54.915Z,86.52
2022-08-22T04:53:27.243Z,86.34
2022-08-22T04:56:53.830Z,85.81
2022-08-22T05:00:06.034Z,85.93
2022-08-22T05:03:14.441Z,86.28
2022-08-22T05:06:19.252Z,86.43
2022-08-22T05:09:28.497Z,86.43
2022-08-22T05:12:41.544Z,86.29
2022-08-22T05:15:48.872Z,86.70
2022-08-22T05:18:59.445Z,86.15
2022-08-22T05:22:03.455Z,85.61
2022-08-22T05:25:18.880Z,85.84
2022-08-22T05:28:31.466Z,85.29
2022-08-22T05:34:44.995Z,84.46
2022-08-22T05:37:51.608Z,84.00
2022-08-22T05:41:19.246Z,83.16
2022-08-22T05:44:25.461Z,83.10
2022-08-22T05:48:06.047Z,82.09
2022-08-22T05:51:33.259Z,82.20
2022-08-22T05:54:39.404Z,81.86
2022-08-22T05:57:46.510Z,81.87
2022-08-22T06:00:57.608Z,81.71
2022-08-22T06:03:59.580Z,81.48
2022-08-22T06:07:08.809Z,81.39
2022-08-22T06:10:26.809Z,81.34
2022-08-22T06:13:41.808Z,81.53
2022-08-22T06:16:54.594Z,81.20
2022-08-22T06:19:56.654Z,80.70
2022-08-22T06:23:01.909Z,80.85
2022-08-22T06:26:05.563Z,80.28
2022-08-22T06:29:49.369Z,79.57
2022-08-22T06:32:58.780Z,79.62
2022-08-22T06:36:25.979Z,79.66
2022-08-22T06:39:34.328Z,79.69
2022-08-22T06:42:42.700Z,79.69
2022-08-22T06:45:44.662Z,79.18
2022-08-22T06:48:47.888Z,78.84
2022-08-22T06:51:51.161Z,78.96
2022-08-22T06:55:09.189Z,79.04
2022-08-22T06:58:21.064Z,78.72
2022-08-22T07:01:27.675Z,79.29
2022-08-22T07:04:30.469Z,78.91
2022-08-22T07:07:32.334Z,79.14
2022-08-22T07:10:34.551Z,79.44
2022-08-22T07:13:39.230Z,79.56
2022-08-22T07:16:58.048Z,79.33
2022-08-22T07:20:15.698Z,79.40
2022-08-22T07:23:32.626Z,79.32
2022-08-22T07:27:08.440Z,79.56
2022-08-22T07:30:14.572Z,79.07
2022-08-22T07:33:47.182Z,79.25
2022-08-22T07:37:13.548Z,78.63
2022-08-22T07:40:35.841Z,78.87
2022-08-22T07:43:40.507Z,78.06
2022-08-22T07:46:57.115Z,78.28
2022-08-22T07:50:07.202Z,78.09
2022-08-22T07:53:47.529Z,77.43
2022-08-22T07:57:17.994Z,77.54
2022-08-22T08:00:21.814Z,77.22
2022-08-22T08:03:27.792Z,76.61
2022-08-22T08:06:32.000Z,76.49
2022-08-22T08:09:42.808Z,76.51
2022-08-22T08:12:57.942Z,75.44
2022-08-22T08:16:09.072Z,75.11
2022-08-22T08:19:12.637Z,75.01
2022-08-22T08:22:21.506Z,73.82
2022-08-22T08:25:27.872Z,73.50
2022-08-22T08:28:36.073Z,73.10
2022-08-22T08:31:44.933Z,72.89
2022-08-22T08:34:47.052Z,73.10
2022-08-22T08:38:15.780Z,72.78
2022-08-22T08:41:51.430Z,72.38
2022-08-22T08:45:29.005Z,71.74
2022-08-22T08:49:09.663Z,71.42
2022-08-22T08:52:36.485Z,71.08
2022-08-22T08:55:57.216Z,70.82
2022-08-22T08:59:30.081Z,71.05
2022-08-22T09:03:07.169Z,70.54
2022-08-22T09:07:01.278Z,70.22
2022-08-22T09:10:29.542Z,70.23
2022-08-22T09:14:03.843Z,69.97
2022-08-22T09:17:24.952Z,69.62
2022-08-22T09:20:35.594Z,69.98
2022-08-22T09:23:56.990Z,69.98
2022-08-22T09:27:02.205Z,69.72
2022-08-22T09:30:12.583Z,69.67
2022-08-22T09:33:19.752Z,70.05
2022-08-22T09:36:32.635Z,70.26
2022-08-22T09:39:49.443Z,70.96
2022-08-22T09:43:19.814Z,71.01
2022-08-22T09:46:32.073Z,71.16
2022-08-22T09:49:55.663Z,72.26
2022-08-22T09:53:39.951Z,71.35
2022-08-22T09:56:50.496Z,70.81
2022-08-22T10:00:09.688Z,70.10
2022-08-22T10:03:23.003Z,69.85
2022-08-22T10:06:30.930Z,70.36
2022-08-22T10:10:04.150Z,69.75
2022-08-22T10:13:11.877Z,69.74
2022-08-22T10:16:28.792Z,69.87
2022-08-22T10:19:34.839Z,69.71
2022-08-22T10:22:56.406Z,70.34
2022-08-22T10:26:29.443Z,69.73
2022-08-22T10:29:51.242Z,69.55
2022-08-22T10:33:29.961Z,68.79
2022-08-22T10:36:47.162Z,68.71
2022-08-22T10:39:57.904Z,68.71
2022-08-22T10:43:19.712Z,67.60
2022-08-22T10:46:42.198Z,68.36
2022-08-22T10:50:04.026Z,68.72
2022-08-22T10:53:35.039Z,68.93
2022-08-22T10:57:12.379Z,68.30
2022-08-22T11:00:31.186Z,67.49
2022-08-22T11:03:49.935Z,67.05
2022-08-22T11:07:19.195Z,66.59
2022-08-22T11:10:41.065Z,65.68
2022-08-22T11:13:58.339Z,65.91
2022-08-22T11:17:28.053Z,65.46
2022-08-22T11:20:56.017Z,66.16
2022-08-22T11:24:35.616Z,65.68
2022-08-22T11:28:15.618Z,65.47
2022-08-22T11:31:19.885Z,65.84
2022-08-22T11:34:50.090Z,66.65
2022-08-22T11:38:01.270Z,66.87
2022-08-22T11:41:22.362Z,66.66
2022-08-22T11:44:50.893Z,67.18
2022-08-22T11:48:30.035Z,67.14
2022-08-22T11:52:01.301Z,68.12
2022-08-22T11:55:21.876Z,67.95
2022-08-22T11:58:52.516Z,68.25
2022-08-22T12:02:04.933Z,69.75
2022-08-22T12:05:26.311Z,71.61
2022-08-22T12:08:34.567Z,73.53
2022-08-22T12:11:54.245Z,74.80
2022-08-22T12:15:04.517Z,74.82
2022-08-22T12:18:52.708Z,73.15
2022-08-22T12:22:28.941Z,71.93
2022-08-22T12:25:55.031Z,71.20
2022-08-22T12:29:15.186Z,70.36
2022-08-22T12:32:28.607Z,69.92
2022-08-22T12:36:18.362Z,69.38
2022-08-22T12:39:51.164Z,68.94
2022-08-22T12:43:08.021Z,68.35
2022-08-22T12:46:31.836Z,68.19
2022-08-22T12:49:52.619Z,67.86
2022-08-22T12:53:18.228Z,67.88
2022-08-22T12:56:47.231Z,67.95
2022-08-22T12:59:54.940Z,67.94
2022-08-22T13:03:23.386Z,67.98
2022-08-22T13:06:37.950Z,66.58
2022-08-22T13:09:46.495Z,66.39
2022-08-22T13:12:58.315Z,66.56
2022-08-22T13:16:05.120Z,65.63
2022-08-22T13:19:16.379Z,65.15
2022-08-22T13:22:23.766Z,65.16
2022-08-22T13:25:30.566Z,65.14
2022-08-22T13:28:40.199Z,63.69
2022-08-22T13:31:43.811Z,63.43
2022-08-22T13:34:51.263Z,62.71
2022-08-22T13:38:03.284Z,62.86
2022-08-22T13:41:07.516Z,62.48
2022-08-22T13:44:09.979Z,61.74
2022-08-22T13:47:19.183Z,61.55
2022-08-22T13:50:25.893Z,61.75
2022-08-22T13:53:27.701Z,61.93
2022-08-22T13:56:53.020Z,62.09
2022-08-22T14:00:08.071Z,61.67
2022-08-22T14:03:18.481Z,62.36
2022-08-22T14:06:35.447Z,62.23
2022-08-22T14:09:48.199Z,62.07
2022-08-22T14:12:57.655Z,62.16
2022-08-22T14:16:02.927Z,62.90
2022-08-22T14:19:58.871Z,62.37
2022-08-22T14:23:07.562Z,62.13
2022-08-22T14:26:09.662Z,61.93
2022-08-22T14:29:18.654Z,62.18
2022-08-22T14:32:27.619Z,62.52
2022-08-22T14:35:40.943Z,62.81
2022-08-22T14:39:12.018Z,62.86
2022-08-22T14:42:33.261Z,63.74
2022-08-22T14:45:42.924Z,63.47
2022-08-22T14:49:06.941Z,64.19
2022-08-22T14:52:25.527Z,64.10
2022-08-22T14:55:31.654Z,63.66
2022-08-22T14:58:37.644Z,63.37
2022-08-22T15:02:02.162Z,63.23
2022-08-22T15:05:22.680Z,63.24
2022-08-22T15:08:46.457Z,62.83
2022-08-22T15:11:49.379Z,63.45
2022-08-22T15:14:55.277Z,63.26
2022-08-22T15:17:57.390Z,63.31
2022-08-22T15:21:10.031Z,63.13
2022-08-22T15:24:14.775Z,63.88
2022-08-22T15:27:20.798Z,63.21
2022-08-22T15:30:44.449Z,63.54
2022-08-22T15:33:47.787Z,63.39
2022-08-22T15:37:09.838Z,62.79
2022-08-22T15:40:40.326Z,63.31
2022-08-22T15:43:49.262Z,63.76
2022-08-22T15:47:24.136Z,63.60
2022-08-22T15:50:33.099Z,63.91
2022-08-22T15:53:44.484Z,63.65
2022-08-22T15:56:52.086Z,64.05
2022-08-22T16:00:24.014Z,63.33
2022-08-22T16:03:34.206Z,63.70
2022-08-22T16:06:50.625Z,63.65
2022-08-22T16:09:54.821Z,63.80
2022-08-22T16:13:33.004Z,63.73
2022-08-22T16:17:03.455Z,64.15
2022-08-22T16:20:09.117Z,64.27
2022-08-22T16:23:11.904Z,63.93
2022-08-22T16:26:24.022Z,63.97
2022-08-22T16:29:41.722Z,63.82
2022-08-22T16:32:52.837Z,63.70
2022-08-22T16:36:19.154Z,64.23
2022-08-22T16:39:23.847Z,64.08
2022-08-22T16:42:36.893Z,64.24
2022-08-22T16:45:45.658Z,64.51
2022-08-22T16:48:47.524Z,64.45
2022-08-22T16:52:24.788Z,64.20
2022-08-22T16:55:29.447Z,64.19
2022-08-22T16:58:56.996Z,63.65
2022-08-22T17:02:18.146Z,63.80
2022-08-22T17:05:32.439Z,64.04
2022-08-22T17:09:00.387Z,64.34
2022-08-22T17:12:34.115Z,64.34
2022-08-22T17:15:47.622Z,64.36
2022-08-22T17:19:05.094Z,64.77
2022-08-22T17:22:09.934Z,64.31
2022-08-22T17:25:23.185Z,64.84
2022-08-22T17:28:54.167Z,64.78
2022-08-22T17:32:20.901Z,64.83
2022-08-22T17:35:58.403Z,64.98
2022-08-22T17:39:53.025Z,64.92
2022-08-22T17:43:15.478Z,65.21
2022-08-22T17:46:35.626Z,65.62
2022-08-22T17:49:46.739Z,65.90
2022-08-22T17:52:54.418Z,65.74
2022-08-22T17:56:24.337Z,65.89
2022-08-22T17:59:34.900Z,65.86
2022-08-22T18:02:51.507Z,65.80
2022-08-22T18:05:58.846Z,66.33
2022-08-22T18:09:19.149Z,66.40
2022-08-22T18:12:34.307Z,66.67
2022-08-22T18:15:43.347Z,67.31
2022-08-22T18:18:54.648Z,67.41
2022-08-22T18:22:04.278Z,67.35
2022-08-22T18:25:54.475Z,67.31
2022-08-22T18:29:23.509Z,67.53
2022-08-22T18:32:48.719Z,67.63
2022-08-22T18:36:01.108Z,67.79
2022-08-22T18:39:13.819Z,68.00
2022-08-22T18:42:42.187Z,67.74
2022-08-22T18:45:47.071Z,67.72
2022-08-22T18:49:13.687Z,68.07
2022-08-22T18:52:16.059Z,68.65
2022-08-22T18:55:39.567Z,68.32
2022-08-22T18:59:05.593Z,68.33
2022-08-22T19:02:34.531Z,68.91
2022-08-22T19:05:46.303Z,68.70
2022-08-22T19:09:08.815Z,68.65
2022-08-22T19:12:49.933Z,68.55
2022-08-22T19:16:06.775Z,68.55
2022-08-22T19:19:19.425Z,68.75
2022-08-22T19:22:34.507Z,68.15
2022-08-22T19:26:14.466Z,68.53
2022-08-22T19:29:16.193Z,68.68
2022-08-22T19:32:45.407Z,68.23
2022-08-22T19:35:50.240Z,68.15
2022-08-22T19:39:09.167Z,68.18
2022-08-22T19:42:19.979Z,68.38
2022-08-22T19:45:28.728Z,68.30
2022-08-22T19:48:52.683Z,68.13
2022-08-22T19:52:24.055Z,68.44
2022-08-22T19:55:33.162Z,68.21
2022-08-22T19:59:13.736Z,68.29
2022-08-22T20:02:26.946Z,68.60
2022-08-22T20:05:33.969Z,68.29
2022-08-22T20:08:49.390Z,68.56
2022-08-22T20:12:42.168Z,68.25
2022-08-22T20:16:18.136Z,68.21
2022-08-22T20:19:21.369Z,68.47
2022-08-22T20:22:25.827Z,68.43
2022-08-22T20:25:51.053Z,68.34
2022-08-22T20:28:54.218Z,68.67
2022-08-22T20:31:58.915Z,68.27
2022-08-22T20:35:03.148Z,68.40
2022-08-22T20:38:08.766Z,67.98
2022-08-22T20:41:15.213Z,67.58
2022-08-22T20:44:28.705Z,67.88
2022-08-22T20:47:39.614Z,67.44
2022-08-22T20:50:43.931Z,67.51
2022-08-22T20:53:54.618Z,68.04
2022-08-22T20:57:02.970Z,67.85
2022-08-22T21:00:12.545Z,68.14
2022-08-22T21:03:29.297Z,67.95
2022-08-22T21:06:34.982Z,68.03
2022-08-22T21:09:55.790Z,68.75
2022-08-22T21:13:04.959Z,69.29
2022-08-22T21:16:18.642Z,69.05
2022-08-22T21:19:26.407Z,69.68
2022-08-22T21:22:33.339Z,69.24
2022-08-22T21:25:50.745Z,69.10
2022-08-22T21:29:00.865Z,68.93
2022-08-22T21:32:14.138Z,69.18
2022-08-22T21:35:26.643Z,69.12
2022-08-22T21:38:28.533Z,68.69
2022-08-22T21:41:42.917Z,68.50
2022-08-22T21:44:56.372Z,68.43
2022-08-22T21:47:59.217Z,68.24
2022-08-22T21:51:24.431Z,68.05
2022-08-22T21:54:26.126Z,68.26
2022-08-22T21:57:35.738Z,68.07
2022-08-22T22:00:49.910Z,68.22
2022-08-22T22:03:51.794Z,67.96
2022-08-22T22:06:53.601Z,68.10
2022-08-22T22:09:56.467Z,68.32
2022-08-22T22:13:02.518Z,68.21
2022-08-22T22:16:06.850Z,68.05
2022-08-22T22:19:08.910Z,68.16
2022-08-22T22:22:12.490Z,68.25
2022-08-22T22:25:39.624Z,68.15
2022-08-22T22:28:47.332Z,68.32
2022-08-22T22:31:49.078Z,68.51
2022-08-22T22:34:50.846Z,68.43
2022-08-22T22:37:52.648Z,68.59
2022-08-22T22:40:54.400Z,68.63
2022-08-22T22:43:56.134Z,68.87
2022-08-22T22:46:59.756Z,68.86
2022-08-22T22:50:01.479Z,68.75
2022-08-22T22:53:04.109Z,68.52
2022-08-22T22:56:09.272Z,68.59
2022-08-22T22:59:13.374Z,68.72
2022-08-22T23:02:19.572Z,68.40
2022-08-22T23:05:21.401Z,68.45
2022-08-22T23:08:23.170Z,68.21
2022-08-22T23:11:29.205Z,67.88
2022-08-22T23:14:31.448Z,67.99
2022-08-22T23:17:34.194Z,67.77
2022-08-22T23:20:36.007Z,67.61
2022-08-22T23:23:37.846Z,67.51
2022-08-22T23:26:40.192Z,67.69
2022-08-22T23:29:42.356Z,67.35
2022-08-22T23:32:44.125Z,67.42
2022-08-22T23:35:46.074Z,67.69
2022-08-22T23:38:49.486Z,67.52
2022-08-22T23:41:51.697Z,67.94
2022-08-22T23:44:53.451Z,67.95
2022-08-22T23:47:55.267Z,67.80
2022-08-22T23:50:57.018Z,67.63
2022-08-22T23:53:59.928Z,73.72
2022-08-22T23:57:12.175Z,78.83
